createdAt,value
2016-05-06T00:00:50.587Z,77.45
2016-05-06T00:01:50.574Z,77.45
2016-05-06T00:02:50.593Z,77.93
2016-05-06T00:03:50.581Z,77.93
2016-05-06T00:04:50.583Z,77.93
2016-05-06T00:05:50.569Z,77.64
2016-05-06T00:06:50.572Z,78.22
2016-05-06T00:07:50.574Z,78.59
2016-05-06T00:08:50.594Z,78.78
2016-05-06T00:09:50.596Z,78.31
2016-05-06T00:10:51.208Z,78.78
2016-05-06T00:11:50.585Z,78.31
2016-05-06T00:12:50.558Z,78.88
2016-05-06T00:13:50.576Z,78.69
2016-05-06T00:14:50.563Z,79.46
2016-05-06T00:15:50.565Z,79.07
2016-05-06T00:16:50.552Z,79.07
2016-05-06T00:17:50.554Z,79.17
2016-05-06T00:18:50.402Z,78.88
2016-05-06T00:19:50.576Z,79.17
2016-05-06T00:20:50.556Z,79.27
2016-05-06T00:21:50.575Z,79.07
2016-05-06T00:22:50.562Z,79.17
2016-05-06T00:23:50.565Z,79.46
2016-05-06T00:24:50.567Z,79.03
2016-05-06T00:25:50.585Z,79.27
2016-05-06T00:26:50.557Z,78.98
2016-05-06T00:27:50.560Z,79.13
2016-05-06T00:28:50.562Z,79.22
2016-05-06T00:29:50.549Z,79.51
2016-05-06T00:30:50.552Z,79.32
2016-05-06T00:31:50.554Z,79.41
2016-05-06T00:32:50.573Z,79.6
2016-05-06T00:33:50.404Z,79.99
2016-05-06T00:34:50.547Z,79.89
2016-05-06T00:35:50.535Z,80.36
2016-05-06T00:36:50.537Z,80.36
2016-05-06T00:37:50.539Z,80.36
2016-05-06T00:38:50.542Z,80.55
2016-05-06T00:39:50.529Z,80.46
2016-05-06T00:40:50.438Z,80.27
2016-05-06T00:41:50.534Z,80.55
2016-05-06T00:42:50.537Z,80.55
2016-05-06T00:43:50.540Z,80.46
2016-05-06T00:44:50.527Z,80.65
2016-05-06T00:45:50.530Z,80.55
2016-05-06T00:46:50.532Z,80.55
2016-05-06T00:47:50.535Z,80.75
2016-05-06T00:48:50.522Z,80.75
2016-05-06T00:49:50.369Z,80.84
2016-05-06T00:50:50.527Z,80.94
2016-05-06T00:51:50.390Z,80.75
2016-05-06T00:52:50.533Z,80.46
2016-05-06T00:53:50.536Z,81.51
2016-05-06T00:54:50.366Z,81.6
2016-05-06T00:55:50.916Z,81.41
2016-05-06T00:56:50.513Z,81.41
2016-05-06T00:57:50.531Z,81.41
2016-05-06T00:58:50.377Z,81.51
2016-05-06T00:59:50.520Z,81.89
2016-05-06T01:00:50.524Z,82.08
2016-05-06T01:01:50.526Z,81.98
2016-05-06T01:02:50.529Z,81.89
2016-05-06T01:03:50.500Z,82.27
2016-05-06T01:04:50.503Z,82.08
2016-05-06T01:05:50.506Z,81.98
2016-05-06T01:06:50.540Z,82.18
2016-05-06T01:07:50.526Z,82.08
2016-05-06T01:08:50.514Z,82.18
2016-05-06T01:09:50.517Z,82.18
2016-05-06T01:10:50.503Z,82.32
2016-05-06T01:11:50.506Z,82.32
2016-05-06T01:12:50.508Z,82.27
2016-05-06T01:13:50.496Z,82.46
2016-05-06T01:14:50.498Z,82.61
2016-05-06T01:15:50.501Z,82.46
2016-05-06T01:16:50.519Z,82.46
2016-05-06T01:17:50.506Z,82.65
2016-05-06T01:18:50.494Z,82.93
2016-05-06T01:19:50.497Z,82.37
2016-05-06T01:20:50.499Z,82.18
2016-05-06T01:21:50.501Z,82.46
2016-05-06T01:22:50.505Z,82.18
2016-05-06T01:23:50.491Z,82.46
2016-05-06T01:24:50.494Z,82.46
2016-05-06T01:25:50.496Z,82.46
2016-05-06T01:26:50.485Z,82.42
2016-05-06T01:27:50.487Z,82.37
2016-05-06T01:28:50.490Z,82.46
2016-05-06T01:29:50.492Z,82.65
2016-05-06T01:30:50.479Z,82.84
2016-05-06T01:31:50.482Z,82.93
2016-05-06T01:32:50.328Z,83.32
2016-05-06T01:33:50.487Z,83.22
2016-05-06T01:34:50.473Z,83.37
2016-05-06T01:35:50.493Z,83.65
2016-05-06T01:36:50.495Z,83.94
2016-05-06T01:37:50.466Z,83.65
2016-05-06T01:38:50.469Z,83.85
2016-05-06T01:39:50.473Z,83.94
2016-05-06T01:40:50.475Z,84.33
2016-05-06T01:41:50.461Z,84.52
2016-05-06T01:42:50.465Z,84.23
2016-05-06T01:43:50.467Z,83.94
2016-05-06T01:44:50.454Z,83.85
2016-05-06T01:45:50.472Z,83.75
2016-05-06T01:46:50.475Z,83.85
2016-05-06T01:47:50.462Z,83.94
2016-05-06T01:48:50.450Z,83.94
2016-05-06T01:49:50.467Z,83.94
2016-05-06T01:50:50.454Z,83.75
2016-05-06T01:51:50.442Z,83.85
2016-05-06T01:52:50.461Z,83.75
2016-05-06T01:53:50.447Z,83.85
2016-05-06T01:54:50.449Z,84.42
2016-05-06T01:55:50.781Z,84.33
2016-05-06T01:56:50.440Z,84.13
2016-05-06T01:57:50.443Z,84.23
2016-05-06T01:58:50.445Z,84.52
2016-05-06T01:59:50.432Z,83.94
2016-05-06T02:00:50.435Z,83.56
2016-05-06T02:01:50.437Z,83.94
2016-05-06T02:02:50.440Z,84.23
2016-05-06T02:03:50.442Z,84.33
2016-05-06T02:04:50.430Z,83.94
2016-05-06T02:05:50.432Z,84.33
2016-05-06T02:06:50.435Z,84.52
2016-05-06T02:07:50.422Z,83.65
2016-05-06T02:08:50.425Z,84.52
2016-05-06T02:09:50.428Z,84.13
2016-05-06T02:10:50.742Z,84.13
2016-05-06T02:11:50.261Z,84.89
2016-05-06T02:12:50.436Z,84.61
2016-05-06T02:13:50.407Z,85.18
2016-05-06T02:14:50.425Z,85.28
2016-05-06T02:15:50.444Z,85.18
2016-05-06T02:16:50.275Z,84.8
2016-05-06T02:17:50.403Z,85.56
2016-05-06T02:18:50.420Z,84.61
2016-05-06T02:19:50.408Z,85.18
2016-05-06T02:20:50.411Z,84.99
2016-05-06T02:21:50.413Z,85.18
2016-05-06T02:22:50.416Z,85.37
2016-05-06T02:23:50.390Z,85.18
2016-05-06T02:24:50.393Z,85.66
2016-05-06T02:25:50.412Z,85.24
2016-05-06T02:26:50.415Z,85.47
2016-05-06T02:27:50.386Z,85.37
2016-05-06T02:28:50.420Z,85.28
2016-05-06T02:29:50.406Z,85.37
2016-05-06T02:30:50.395Z,85.47
2016-05-06T02:31:50.397Z,85.37
2016-05-06T02:32:50.399Z,85.85
2016-05-06T02:33:50.386Z,85.99
2016-05-06T02:34:50.233Z,86.09
2016-05-06T02:35:50.408Z,86.18
2016-05-06T02:36:50.394Z,86.18
2016-05-06T02:37:50.226Z,86.09
2016-05-06T02:38:50.385Z,86.28
2016-05-06T02:39:50.372Z,86.09
2016-05-06T02:40:50.390Z,86.57
2016-05-06T02:41:50.376Z,86.38
2016-05-06T02:42:50.379Z,86.47
2016-05-06T02:43:50.399Z,86.85
2016-05-06T02:44:50.369Z,86.47
2016-05-06T02:45:50.371Z,86.18
2016-05-06T02:46:50.360Z,87.23
2016-05-06T02:47:50.362Z,87.04
2016-05-06T02:48:50.364Z,87.9
2016-05-06T02:49:50.351Z,87.71
2016-05-06T02:50:50.355Z,87.23
2016-05-06T02:51:50.357Z,87.8
2016-05-06T02:52:50.343Z,87.9
2016-05-06T02:53:50.363Z,87.61
2016-05-06T02:54:50.348Z,87.99
2016-05-06T02:55:50.368Z,87.32
2016-05-06T02:56:50.354Z,87.99
2016-05-06T02:57:50.342Z,87.71
2016-05-06T02:58:50.360Z,87.13
2016-05-06T02:59:50.363Z,87.71
2016-05-06T03:00:50.350Z,87.8
2016-05-06T03:01:50.352Z,87.71
2016-05-06T03:02:50.340Z,87.8
2016-05-06T03:03:50.358Z,87.52
2016-05-06T03:04:50.330Z,87.42
2016-05-06T03:05:50.347Z,87.42
2016-05-06T03:06:50.350Z,88.18
2016-05-06T03:07:50.322Z,88.18
2016-05-06T03:08:50.324Z,88.28
2016-05-06T03:09:50.327Z,88.28
2016-05-06T03:10:51.174Z,87.8
2016-05-06T03:11:50.333Z,87.42
2016-05-06T03:12:50.335Z,88.46
2016-05-06T03:13:50.400Z,87.61
2016-05-06T03:14:50.309Z,87.8
2016-05-06T03:15:50.313Z,87.8
2016-05-06T03:16:50.315Z,87.52
2016-05-06T03:17:50.318Z,87.42
2016-05-06T03:18:50.320Z,86.94
2016-05-06T03:19:50.307Z,87.04
2016-05-06T03:20:50.326Z,86.85
2016-05-06T03:21:50.296Z,86.85
2016-05-06T03:22:50.299Z,87.52
2016-05-06T03:23:50.318Z,87.52
2016-05-06T03:24:50.305Z,88.18
2016-05-06T03:25:50.307Z,87.99
2016-05-06T03:26:50.295Z,88.18
2016-05-06T03:27:50.298Z,88.18
2016-05-06T03:28:50.144Z,88.18
2016-05-06T03:29:50.287Z,87.8
2016-05-06T03:30:50.290Z,87.71
2016-05-06T03:31:50.292Z,88.18
2016-05-06T03:32:50.280Z,88.09
2016-05-06T03:33:50.267Z,88.18
2016-05-06T03:34:50.285Z,87.42
2016-05-06T03:35:50.272Z,87.61
2016-05-06T03:36:50.275Z,87.32
2016-05-06T03:37:50.278Z,88.28
2016-05-06T03:38:50.108Z,88.09
2016-05-06T03:39:50.283Z,87.99
2016-05-06T03:40:50.286Z,87.71
2016-05-06T03:41:50.265Z,87.71
2016-05-06T03:42:50.267Z,87.8
2016-05-06T03:43:50.243Z,87.61
2016-05-06T03:44:50.244Z,87.52
2016-05-06T03:45:50.247Z,87.42
2016-05-06T03:46:50.235Z,87.99
2016-05-06T03:47:50.113Z,88.18
2016-05-06T03:48:50.240Z,88.46
2016-05-06T03:49:50.243Z,88.56
2016-05-06T03:50:50.229Z,88.75
2016-05-06T03:51:50.263Z,88.09
2016-05-06T03:52:50.251Z,87.61
2016-05-06T03:53:50.081Z,87.61
2016-05-06T03:54:50.225Z,87.61
2016-05-06T03:55:50.259Z,87.61
2016-05-06T03:56:50.058Z,87.9
2016-05-06T03:57:50.217Z,87.9
2016-05-06T03:58:50.220Z,87.61
2016-05-06T03:59:50.223Z,88.46
2016-05-06T04:00:50.054Z,87.9
2016-05-06T04:01:50.212Z,87.8
2016-05-06T04:02:50.214Z,87.52
2016-05-06T04:03:50.202Z,87.32
2016-05-06T04:04:50.189Z,87.42
2016-05-06T04:05:50.206Z,87.71
2016-05-06T04:06:50.210Z,87.8
2016-05-06T04:07:50.198Z,88.28
2016-05-06T04:08:50.200Z,87.32
2016-05-06T04:09:50.186Z,87.71
2016-05-06T04:10:50.268Z,87.52
2016-05-06T04:11:50.207Z,87.8
2016-05-06T04:12:50.180Z,87.9
2016-05-06T04:13:50.197Z,87.8
2016-05-06T04:14:50.216Z,88.28
2016-05-06T04:15:50.188Z,88.18
2016-05-06T04:16:50.018Z,88.18
2016-05-06T04:17:50.193Z,88.09
2016-05-06T04:18:50.195Z,87.99
2016-05-06T04:19:50.183Z,87.9
2016-05-06T04:20:50.185Z,88.09
2016-05-06T04:21:50.188Z,88.28
2016-05-06T04:22:50.190Z,88.28
2016-05-06T04:23:50.177Z,88.09
2016-05-06T04:24:50.165Z,87.94
2016-05-06T04:25:50.995Z,87.37
2016-05-06T04:26:50.154Z,87.46
2016-05-06T04:27:50.173Z,86.42
2016-05-06T04:28:50.160Z,85.18
2016-05-06T04:29:50.146Z,84.36
2016-05-06T04:30:50.165Z,83.13
2016-05-06T04:31:50.152Z,81.74
2016-05-06T04:32:50.202Z,80.31
2016-05-06T04:33:50.157Z,79.3
2016-05-06T04:34:50.176Z,78.44
2016-05-06T04:35:50.163Z,77.2
2016-05-06T04:36:50.165Z,76.29
2016-05-06T04:37:50.168Z,76.1
2016-05-06T04:38:50.155Z,74.67
2016-05-06T04:39:50.173Z,74.19
2016-05-06T04:40:50.223Z,73.47
2016-05-06T04:41:50.148Z,72.51
2016-05-06T04:42:50.166Z,72.42
2016-05-06T04:43:50.169Z,71.75
2016-05-06T04:44:50.172Z,71.12
2016-05-06T04:45:50.002Z,70.64
2016-05-06T04:46:50.161Z,69.78
2016-05-06T04:47:50.164Z,69.34
2016-05-06T04:48:50.183Z,68.76
2016-05-06T04:49:50.185Z,68.76
2016-05-06T04:50:50.172Z,67.43
2016-05-06T04:51:50.190Z,67.27
2016-05-06T04:52:50.021Z,66.79
2016-05-06T04:53:50.180Z,65.93
2016-05-06T04:54:50.183Z,66.13
2016-05-06T04:55:50.545Z,65.39
2016-05-06T04:56:50.173Z,64.25
2016-05-06T04:57:50.191Z,63.76
2016-05-06T04:58:50.209Z,62.55
2016-05-06T04:59:50.056Z,62.94
2016-05-06T05:00:50.198Z,63.13
2016-05-06T05:01:50.218Z,63.48
2016-05-06T05:02:50.204Z,64.72
2016-05-06T05:03:50.222Z,65.77
2016-05-06T05:04:50.210Z,65.93
2016-05-06T05:05:50.212Z,65.84
2016-05-06T05:06:50.215Z,66.41
2016-05-06T05:07:50.233Z,66.31
2016-05-06T05:08:50.237Z,66.22
2016-05-06T05:09:50.223Z,65.36
2016-05-06T05:10:50.280Z,65.01
2016-05-06T05:11:50.298Z,64.43
2016-05-06T05:12:50.348Z,63.67
2016-05-06T05:13:50.398Z,62.74
2016-05-06T05:14:50.448Z,61.88
2016-05-06T05:15:50.499Z,61.05
2016-05-06T05:16:50.519Z,60.38
2016-05-06T05:17:50.539Z,60.29
2016-05-06T05:18:50.558Z,60.1
2016-05-06T05:19:50.592Z,58.98
2016-05-06T05:20:50.607Z,58.79
2016-05-06T05:21:50.616Z,57.48
2016-05-06T05:22:50.610Z,56.9
2016-05-06T05:23:50.633Z,56.42
2016-05-06T05:24:50.643Z,56.81
2016-05-06T05:25:50.649Z,56.42
2016-05-06T05:26:50.640Z,55.94
2016-05-06T05:27:50.503Z,55.21
2016-05-06T05:28:50.665Z,54.82
2016-05-06T05:29:50.669Z,54.24
2016-05-06T05:30:50.689Z,53.86
2016-05-06T05:31:50.521Z,53.96
2016-05-06T05:32:50.696Z,53.58
2016-05-06T05:33:50.700Z,53.48
2016-05-06T05:34:50.703Z,53.41
2016-05-06T05:35:50.707Z,53.22
2016-05-06T05:36:50.709Z,53.12
2016-05-06T05:37:50.729Z,52.55
2016-05-06T05:38:50.575Z,52.36
2016-05-06T05:39:50.750Z,50.56
2016-05-06T05:40:50.988Z,50.75
2016-05-06T05:41:50.756Z,50.46
2016-05-06T05:42:50.743Z,50.27
2016-05-06T05:43:50.761Z,50.08
2016-05-06T05:44:50.764Z,49.79
2016-05-06T05:45:50.782Z,49.91
2016-05-06T05:46:50.769Z,48.95
2016-05-06T05:47:50.804Z,48.38
2016-05-06T05:48:50.822Z,48.38
2016-05-06T05:49:50.809Z,49.15
2016-05-06T05:50:50.827Z,48.57
2016-05-06T05:51:50.829Z,48.57
2016-05-06T05:52:50.817Z,49.24
2016-05-06T05:53:50.820Z,50.46
2016-05-06T05:54:50.823Z,51.4
2016-05-06T05:55:50.840Z,52.52
2016-05-06T05:56:50.843Z,52.91
2016-05-06T05:57:50.909Z,53.67
2016-05-06T05:58:50.848Z,54.34
2016-05-06T05:59:50.867Z,55.27
2016-05-06T06:00:50.885Z,56.32
2016-05-06T06:01:50.856Z,57.92
2016-05-06T06:02:50.875Z,58.86
2016-05-06T06:03:50.893Z,60.26
2016-05-06T06:04:50.880Z,61.02
2016-05-06T06:05:50.898Z,62.33
2016-05-06T06:06:50.901Z,62.43
2016-05-06T06:07:50.889Z,62.24
2016-05-06T06:08:50.906Z,62.52
2016-05-06T06:09:50.909Z,61.12
2016-05-06T06:10:51.411Z,60.06
2016-05-06T06:11:50.930Z,58.56
2016-05-06T06:12:50.917Z,57.16
2016-05-06T06:13:50.920Z,55.46
2016-05-06T06:14:50.939Z,53.77
2016-05-06T06:15:50.925Z,52.74
2016-05-06T06:16:50.943Z,50.94
2016-05-06T06:17:50.931Z,49.6
2016-05-06T06:18:50.965Z,47.99
2016-05-06T06:19:50.796Z,46.58
2016-05-06T06:20:50.955Z,45.54
2016-05-06T06:21:50.973Z,44.58
2016-05-06T06:22:50.976Z,43.74
2016-05-06T06:23:50.962Z,42.89
2016-05-06T06:24:50.982Z,42.8
2016-05-06T06:25:51.109Z,41.56
2016-05-06T06:26:51.002Z,41.11
2016-05-06T06:27:51.004Z,41.2
2016-05-06T06:28:51.023Z,39.66
2016-05-06T06:29:51.025Z,39.49
2016-05-06T06:30:51.029Z,39.12
2016-05-06T06:31:51.031Z,38.45
2016-05-06T06:32:50.877Z,38.83
2016-05-06T06:33:51.037Z,38.16
2016-05-06T06:34:51.055Z,38.26
2016-05-06T06:35:50.900Z,39.12
2016-05-06T06:36:51.061Z,39.03
2016-05-06T06:37:51.078Z,38.64
2016-05-06T06:38:51.097Z,38.45
2016-05-06T06:39:50.944Z,37.96
2016-05-06T06:40:51.477Z,38.83
2016-05-06T06:41:51.105Z,38.35
2016-05-06T06:42:51.107Z,38.43
2016-05-06T06:43:51.125Z,38.91
2016-05-06T06:44:51.144Z,38.91
2016-05-06T06:45:51.163Z,38.72
2016-05-06T06:46:51.166Z,38.72
2016-05-06T06:47:51.168Z,38.91
2016-05-06T06:48:51.186Z,39.01
2016-05-06T06:49:51.282Z,38.81
2016-05-06T06:50:51.191Z,38.62
2016-05-06T06:51:51.210Z,38.91
2016-05-06T06:52:51.213Z,38.53
2016-05-06T06:53:51.090Z,38.04
2016-05-06T06:54:51.234Z,38.16
2016-05-06T06:55:51.111Z,38.16
2016-05-06T06:56:51.254Z,36.91
2016-05-06T06:57:51.273Z,36.61
2016-05-06T06:58:51.119Z,36.35
2016-05-06T06:59:51.310Z,36.54
2016-05-06T07:00:51.312Z,36.44
2016-05-06T07:01:51.315Z,36.73
2016-05-06T07:02:51.318Z,36.44
2016-05-06T07:03:51.320Z,35.59
2016-05-06T07:04:51.306Z,35.78
2016-05-06T07:05:51.325Z,36.65
2016-05-06T07:06:51.328Z,36.35
2016-05-06T07:07:51.378Z,36.44
2016-05-06T07:08:51.380Z,36.06
2016-05-06T07:09:51.368Z,36.17
2016-05-06T07:10:51.589Z,35.78
2016-05-06T07:11:51.404Z,36.07
2016-05-06T07:12:51.391Z,35.88
2016-05-06T07:13:51.394Z,35.98
2016-05-06T07:14:51.412Z,37.23
2016-05-06T07:15:51.430Z,37.21
2016-05-06T07:16:51.449Z,36.44
2016-05-06T07:17:51.452Z,35.98
2016-05-06T07:18:51.455Z,35.3
2016-05-06T07:19:51.457Z,35.3
2016-05-06T07:20:51.460Z,36.36
2016-05-06T07:21:51.477Z,37.12
2016-05-06T07:22:51.501Z,38.54
2016-05-06T07:23:51.379Z,39.78
2016-05-06T07:24:51.350Z,39.95
2016-05-06T07:25:51.493Z,40.91
2016-05-06T07:26:52.106Z,40.8
2016-05-06T07:27:51.499Z,40.05
2016-05-06T07:28:51.517Z,39.76
2016-05-06T07:29:51.551Z,39.66
2016-05-06T07:30:51.539Z,39.76
2016-05-06T07:31:51.542Z,38.72
2016-05-06T07:32:51.560Z,37.68
2016-05-06T07:33:51.562Z,36.44
2016-05-06T07:34:51.564Z,35.98
2016-05-06T07:35:51.583Z,35.22
2016-05-06T07:36:51.601Z,34.94
2016-05-06T07:37:51.603Z,34.64
2016-05-06T07:38:51.622Z,33.7
2016-05-06T07:39:51.609Z,33.33
2016-05-06T07:40:51.628Z,32.84
2016-05-06T07:41:52.099Z,33.14
2016-05-06T07:42:51.633Z,32.84
2016-05-06T07:43:51.652Z,33.04
2016-05-06T07:44:51.669Z,34
2016-05-06T07:45:51.672Z,34.66
2016-05-06T07:46:51.691Z,36.46
2016-05-06T07:47:51.693Z,37.98
2016-05-06T07:48:51.697Z,40.07
2016-05-06T07:49:51.699Z,41.01
2016-05-06T07:50:51.717Z,40.8
2016-05-06T07:51:52.907Z,40.34
2016-05-06T07:52:53.113Z,39.39
2016-05-06T07:53:53.021Z,38.72
2016-05-06T07:54:51.728Z,37.48
2016-05-06T07:55:51.762Z,36.63
2016-05-06T07:56:52.234Z,35.3
2016-05-06T07:57:51.767Z,34.64
2016-05-06T07:58:51.786Z,33.7
2016-05-06T07:59:52.351Z,32.94
2016-05-06T08:00:53.165Z,32.65
2016-05-06T08:01:52.575Z,32.56
2016-05-06T08:02:51.812Z,32.38
2016-05-06T08:03:51.830Z,32.96
2016-05-06T08:04:51.817Z,33.04
2016-05-06T08:05:51.836Z,32.65
2016-05-06T08:06:51.839Z,31.99
2016-05-06T08:07:51.856Z,31.88
2016-05-06T08:08:51.859Z,31.22
2016-05-06T08:09:51.894Z,30.75
2016-05-06T08:10:51.896Z,30.07
2016-05-06T08:11:51.727Z,30.18
2016-05-06T08:12:51.901Z,30.76
2016-05-06T08:13:51.764Z,30.18
2016-05-06T08:14:51.922Z,30.86
2016-05-06T08:15:51.925Z,31.33
2016-05-06T08:16:51.943Z,30.08
2016-05-06T08:17:52.399Z,29.99
2016-05-06T08:18:51.793Z,29.91
2016-05-06T08:19:51.966Z,30.28
2016-05-06T08:20:52.001Z,30.08
2016-05-06T08:21:51.988Z,30.18
2016-05-06T08:22:51.991Z,30.18
2016-05-06T08:23:52.024Z,30.18
2016-05-06T08:24:51.855Z,30.38
2016-05-06T08:25:52.015Z,30.96
2016-05-06T08:26:52.251Z,30.86
2016-05-06T08:27:52.051Z,30.66
2016-05-06T08:28:52.054Z,30.28
2016-05-06T08:29:52.056Z,29.9
2016-05-06T08:30:52.075Z,30.08
2016-05-06T08:31:52.078Z,30.96
2016-05-06T08:32:52.127Z,31.15
2016-05-06T08:33:52.098Z,30.85
2016-05-06T08:34:52.117Z,31.99
2016-05-06T08:35:52.120Z,32.18
2016-05-06T08:36:52.122Z,32.17
2016-05-06T08:37:52.125Z,32.07
2016-05-06T08:38:52.174Z,32.18
2016-05-06T08:39:52.006Z,31.89
2016-05-06T08:40:52.148Z,32.96
2016-05-06T08:41:52.026Z,31.02
2016-05-06T08:42:52.169Z,31.7
2016-05-06T08:43:52.188Z,32.65
2016-05-06T08:44:52.191Z,33.72
2016-05-06T08:45:52.052Z,35.61
2016-05-06T08:46:52.211Z,38.78
2016-05-06T08:47:52.230Z,39.31
2016-05-06T08:48:52.248Z,39.99
2016-05-06T08:49:52.266Z,39.87
2016-05-06T08:50:52.097Z,40.43
2016-05-06T08:51:52.115Z,41.78
2016-05-06T08:52:52.275Z,41.47
2016-05-06T08:53:52.277Z,41.38
2016-05-06T08:54:52.311Z,41.66
2016-05-06T08:55:52.329Z,41.47
2016-05-06T08:56:52.629Z,41.47
2016-05-06T08:57:52.319Z,41.55
2016-05-06T08:58:52.338Z,42.22
2016-05-06T08:59:52.668Z,42.12
2016-05-06T09:00:52.343Z,42.89
2016-05-06T09:01:52.345Z,42.22
2016-05-06T09:02:52.365Z,42.22
2016-05-06T09:03:52.351Z,41.55
2016-05-06T09:04:52.401Z,40.97
2016-05-06T09:05:52.434Z,40.7
2016-05-06T09:06:52.281Z,41.38
2016-05-06T09:07:52.424Z,41.28
2016-05-06T09:08:52.411Z,39.93
2016-05-06T09:09:52.445Z,39.26
2016-05-06T09:10:52.417Z,37.91
2016-05-06T09:11:52.936Z,37.34
2016-05-06T09:12:52.594Z,38.01
2016-05-06T09:13:52.284Z,38.56
2016-05-06T09:14:52.427Z,39.53
2016-05-06T09:15:52.446Z,39.72
2016-05-06T09:16:52.449Z,40.18
2016-05-06T09:17:52.452Z,41.14
2016-05-06T09:18:52.297Z,42.89
2016-05-06T09:19:52.472Z,43.76
2016-05-06T09:20:52.474Z,43.47
2016-05-06T09:21:52.478Z,42.5
2016-05-06T09:22:52.480Z,42.41
2016-05-06T09:23:52.498Z,41.93
2016-05-06T09:24:52.346Z,41.45
2016-05-06T09:25:52.333Z,41.66
2016-05-06T09:26:52.522Z,41.08
2016-05-06T09:27:52.510Z,40.89
2016-05-06T09:28:52.527Z,41.08
2016-05-06T09:29:52.530Z,40.89
2016-05-06T09:30:52.376Z,41.28
2016-05-06T09:31:52.364Z,40.61
2016-05-06T09:32:52.523Z,40.7
2016-05-06T09:33:52.416Z,41.18
2016-05-06T09:34:52.576Z,42.05
2016-05-06T09:35:52.390Z,42.24
2016-05-06T09:36:52.565Z,41.66
2016-05-06T09:37:52.568Z,42.24
2016-05-06T09:38:52.570Z,41.95
2016-05-06T09:39:52.573Z,41.86
2016-05-06T09:40:52.592Z,41.47
2016-05-06T09:41:53.187Z,41.18
2016-05-06T09:42:52.425Z,41.56
2016-05-06T09:43:52.615Z,42.14
2016-05-06T09:44:52.603Z,41.76
2016-05-06T09:45:52.605Z,41.47
2016-05-06T09:46:52.608Z,41.38
2016-05-06T09:47:52.611Z,41.47
2016-05-06T09:48:52.644Z,41.76
2016-05-06T09:49:52.646Z,41.76
2016-05-06T09:50:52.494Z,41.97
2016-05-06T09:51:52.652Z,41.59
2016-05-06T09:52:52.655Z,41.59
2016-05-06T09:53:52.658Z,42.36
2016-05-06T09:54:52.644Z,42.16
2016-05-06T09:55:52.647Z,41.49
2016-05-06T09:56:52.682Z,41.2
2016-05-06T09:57:52.684Z,41.59
2016-05-06T09:58:52.702Z,41.78
2016-05-06T09:59:52.704Z,39.97
2016-05-06T10:00:52.693Z,39.87
2016-05-06T10:01:52.710Z,39.29
2016-05-06T10:02:52.712Z,39.78
2016-05-06T10:03:52.716Z,39.49
2016-05-06T10:04:52.718Z,39.49
2016-05-06T10:05:52.705Z,39.59
2016-05-06T10:06:52.755Z,38.06
2016-05-06T10:07:52.742Z,38.06
2016-05-06T10:08:52.917Z,38.26
2016-05-06T10:09:52.826Z,38.26
2016-05-06T10:10:52.797Z,38.26
2016-05-06T10:11:52.597Z,37.68
2016-05-06T10:12:52.756Z,38.37
2016-05-06T10:13:52.806Z,37.7
2016-05-06T10:14:52.855Z,38.18
2016-05-06T10:15:52.779Z,38.37
2016-05-06T10:16:52.625Z,38.18
2016-05-06T10:17:52.784Z,37.98
2016-05-06T10:18:52.787Z,37.79
2016-05-06T10:19:52.805Z,40.01
2016-05-06T10:20:52.825Z,39.34
2016-05-06T10:21:52.811Z,37.02
2016-05-06T10:22:52.830Z,36.07
2016-05-06T10:23:52.832Z,35.88
2016-05-06T10:24:52.834Z,36.25
2016-05-06T10:25:52.838Z,34.61
2016-05-06T10:26:52.855Z,32.87
2016-05-06T10:27:52.858Z,32.87
2016-05-06T10:28:52.877Z,33.65
2016-05-06T10:29:52.879Z,32.87
2016-05-06T10:30:52.866Z,33.55
2016-05-06T10:31:52.869Z,33.34
2016-05-06T10:32:52.716Z,33.73
2016-05-06T10:33:52.890Z,34.11
2016-05-06T10:34:52.752Z,34.4
2016-05-06T10:35:52.911Z,35.08
2016-05-06T10:36:52.914Z,34.78
2016-05-06T10:37:52.917Z,36.23
2016-05-06T10:38:52.919Z,35.85
2016-05-06T10:39:52.781Z,35.36
2016-05-06T10:40:52.925Z,36.13
2016-05-06T10:41:53.553Z,36.13
2016-05-06T10:42:52.945Z,35.56
2016-05-06T10:43:52.808Z,34.22
2016-05-06T10:44:52.967Z,34.9
2016-05-06T10:45:52.969Z,33.92
2016-05-06T10:46:52.972Z,29.5
2016-05-06T10:47:52.959Z,25.35
2016-05-06T10:48:52.977Z,26.03
2016-05-06T10:49:52.996Z,26.12
2016-05-06T10:50:52.983Z,26.42
2016-05-06T10:51:53.000Z,26.32
2016-05-06T10:52:53.003Z,27.96
2016-05-06T10:53:53.022Z,29.21
2016-05-06T10:54:53.009Z,29.31
2016-05-06T10:55:53.028Z,29.31
2016-05-06T10:56:53.671Z,28.53
2016-05-06T10:57:53.049Z,28.44
2016-05-06T10:58:53.035Z,27.86
2016-05-06T10:59:53.039Z,26.53
2016-05-06T11:00:53.040Z,27.59
2016-05-06T11:01:53.044Z,28.45
2016-05-06T11:02:53.062Z,28.45
2016-05-06T11:03:53.065Z,28.36
2016-05-06T11:04:53.098Z,28.26
2016-05-06T11:05:53.085Z,28.83
2016-05-06T11:06:53.088Z,29.69
2016-05-06T11:07:53.107Z,30.37
2016-05-06T11:08:53.093Z,29.9
2016-05-06T11:09:53.096Z,29.79
2016-05-06T11:10:53.099Z,30.18
2016-05-06T11:11:53.805Z,29.98
2016-05-06T11:12:53.120Z,29.89
2016-05-06T11:13:52.967Z,29.8
2016-05-06T11:14:53.142Z,30.19
2016-05-06T11:15:53.159Z,30.19
2016-05-06T11:16:53.147Z,29.43
2016-05-06T11:17:53.150Z,28.95
2016-05-06T11:18:53.167Z,28.85
2016-05-06T11:19:52.998Z,29.53
2016-05-06T11:20:53.173Z,30.01
2016-05-06T11:21:53.176Z,30.21
2016-05-06T11:22:53.209Z,29.91
2016-05-06T11:23:53.196Z,29.32
2016-05-06T11:24:53.200Z,28.74
2016-05-06T11:25:53.202Z,28.74
2016-05-06T11:26:53.220Z,28.36
2016-05-06T11:27:53.052Z,28.84
2016-05-06T11:28:53.241Z,28.74
2016-05-06T11:29:53.228Z,28.74
2016-05-06T11:30:53.231Z,28.37
2016-05-06T11:31:53.249Z,27.12
2016-05-06T11:32:53.299Z,27.02
2016-05-06T11:33:53.255Z,27.6
2016-05-06T11:34:53.273Z,28.95
2016-05-06T11:35:53.277Z,26.06
2016-05-06T11:36:53.263Z,26.06
2016-05-06T11:37:53.281Z,25.67
2016-05-06T11:38:53.285Z,25.19
2016-05-06T11:39:53.130Z,24.41
2016-05-06T11:40:53.133Z,26.64
2016-05-06T11:41:53.307Z,26.06
2016-05-06T11:42:53.326Z,25.38
2016-05-06T11:43:53.516Z,24.99
2016-05-06T11:44:53.331Z,25.56
2016-05-06T11:45:53.318Z,25.46
2016-05-06T11:46:53.337Z,25.37
2016-05-06T11:47:53.323Z,24.5
2016-05-06T11:48:53.373Z,24.79
2016-05-06T11:49:53.361Z,24.3
2016-05-06T11:50:53.723Z,25.46
2016-05-06T11:51:53.194Z,28.64
2016-05-06T11:52:53.384Z,27.87
2016-05-06T11:53:53.387Z,27.59
2016-05-06T11:54:53.389Z,26.23
2016-05-06T11:55:53.220Z,25.37
2016-05-06T11:56:53.394Z,24.61
2016-05-06T11:57:53.398Z,25.18
2016-05-06T11:58:53.853Z,24.99
2016-05-06T11:59:53.433Z,24.8
2016-05-06T12:00:53.437Z,23.55
2016-05-06T12:01:53.268Z,23.35
2016-05-06T12:02:53.442Z,25.09
2016-05-06T12:03:53.444Z,23.45
2016-05-06T12:04:53.448Z,24.61
2016-05-06T12:05:53.450Z,25.57
2016-05-06T12:06:53.468Z,22.67
2016-05-06T12:07:53.456Z,24.61
2016-05-06T12:08:53.474Z,23.35
2016-05-06T12:09:53.461Z,23.36
2016-05-06T12:10:53.479Z,22.5
2016-05-06T12:11:53.498Z,22.59
2016-05-06T12:12:53.485Z,24.52
2016-05-06T12:13:53.487Z,26.26
2016-05-06T12:14:53.506Z,24.72
2016-05-06T12:15:53.523Z,23.94
2016-05-06T12:16:53.527Z,23.47
2016-05-06T12:17:53.529Z,23.08
2016-05-06T12:18:53.532Z,23.08
2016-05-06T12:19:53.535Z,23.38
2016-05-06T12:20:53.537Z,23.47
2016-05-06T12:21:53.556Z,23.47
2016-05-06T12:22:53.575Z,24.63
2016-05-06T12:23:53.405Z,24.54
2016-05-06T12:24:53.564Z,24.54
2016-05-06T12:25:53.567Z,23.97
2016-05-06T12:26:54.398Z,23.97
2016-05-06T12:27:53.588Z,24.44
2016-05-06T12:28:53.590Z,24.54
2016-05-06T12:29:53.625Z,24.63
2016-05-06T12:30:53.627Z,24.34
2016-05-06T12:31:53.614Z,24.24
2016-05-06T12:32:53.617Z,24.44
2016-05-06T12:33:53.510Z,24.63
2016-05-06T12:34:53.638Z,24.73
2016-05-06T12:35:53.640Z,24.65
2016-05-06T12:36:53.659Z,24.35
2016-05-06T12:37:53.659Z,24.07
2016-05-06T12:38:53.521Z,23.39
2016-05-06T12:39:53.679Z,24.93
2016-05-06T12:40:53.699Z,25.13
2016-05-06T12:41:53.873Z,24.65
2016-05-06T12:42:53.703Z,24.35
2016-05-06T12:43:53.691Z,25.42
2016-05-06T12:44:53.568Z,24.93
2016-05-06T12:45:53.743Z,23.29
2016-05-06T12:46:53.729Z,23.1
2016-05-06T12:47:53.732Z,23
2016-05-06T12:48:53.735Z,23
2016-05-06T12:49:53.582Z,22.91
2016-05-06T12:50:53.741Z,23.58
2016-05-06T12:51:53.806Z,23.5
2016-05-06T12:52:53.778Z,23.88
2016-05-06T12:53:53.764Z,23.59
2016-05-06T12:54:53.783Z,23.69